sensor_id;sensor_type;location;lat;lon;timestamp;P1;durP1;ratioP1;P2;durP2;ratioP2
28170;SDS011;15458;53.346;-1.688;2022-08-02T00:01:34;5.55;;;1.50;;
28170;SDS011;15458;53.346;-1.688;2022-08-02T00:04:00;4.80;;;1.35;;
28170;SDS011;15458;53.346;-1.688;2022-08-02T00:06:25;5.50;;;1.45;;
28170;SDS011;15458;53.346;-1.688;2022-08-02T00:08:51;6.93;;;1.40;;
28170;SDS011;15458;53.346;-1.688;2022-08-02T00:11:18;4.63;;;1.20;;
28170;SDS011;15458;53.346;-1.688;2022-08-02T00:13:44;3.50;;;0.90;;
28170;SDS011;15458;53.346;-1.688;2022-08-02T00:16:10;3.05;;;1.10;;
28170;SDS011;15458;53.346;-1.688;2022-08-02T00:18:36;1.70;;;0.95;;
28170;SDS011;15458;53.346;-1.688;2022-08-02T00:21:02;2.15;;;1.35;;
28170;SDS011;15458;53.346;-1.688;2022-08-02T00:23:28;1.23;;;0.98;;
28170;SDS011;15458;53.346;-1.688;2022-08-02T00:25:54;2.80;;;0.93;;
28170;SDS011;15458;53.346;-1.688;2022-08-02T00:28:21;1.10;;;0.77;;
28170;SDS011;15458;53.346;-1.688;2022-08-02T00:30:47;2.92;;;0.60;;
28170;SDS011;15458;53.346;-1.688;2022-08-02T00:33:13;2.10;;;0.88;;
28170;SDS011;15458;53.346;-1.688;2022-08-02T00:35:39;2.80;;;0.70;;
28170;SDS011;15458;53.346;-1.688;2022-08-02T00:38:05;2.08;;;1.30;;
28170;SDS011;15458;53.346;-1.688;2022-08-02T00:40:31;1.15;;;0.70;;
28170;SDS011;15458;53.346;-1.688;2022-08-02T00:43:06;7.72;;;1.05;;
28170;SDS011;15458;53.346;-1.688;2022-08-02T00:45:35;2.45;;;0.70;;
28170;SDS011;15458;53.346;-1.688;2022-08-02T00:48:03;4.72;;;0.80;;
28170;SDS011;15458;53.346;-1.688;2022-08-02T00:50:29;2.45;;;0.70;;
28170;SDS011;15458;53.346;-1.688;2022-08-02T00:52:56;2.72;;;1.10;;
28170;SDS011;15458;53.346;-1.688;2022-08-02T00:55:22;0.85;;;0.82;;
28170;SDS011;15458;53.346;-1.688;2022-08-02T00:57:48;2.00;;;1.20;;
28170;SDS011;15458;53.346;-1.688;2022-08-02T01:00:14;4.05;;;1.00;;
28170;SDS011;15458;53.346;-1.688;2022-08-02T01:02:40;2.13;;;0.90;;
28170;SDS011;15458;53.346;-1.688;2022-08-02T01:05:06;3.30;;;1.25;;
28170;SDS011;15458;53.346;-1.688;2022-08-02T01:07:32;3.47;;;0.82;;
28170;SDS011;15458;53.346;-1.688;2022-08-02T01:09:59;5.20;;;1.30;;
28170;SDS011;15458;53.346;-1.688;2022-08-02T01:12:25;6.93;;;1.35;;
28170;SDS011;15458;53.346;-1.688;2022-08-02T01:14:52;6.28;;;1.08;;
28170;SDS011;15458;53.346;-1.688;2022-08-02T01:23:44;4.95;;;1.40;;
28170;SDS011;15458;53.346;-1.688;2022-08-02T01:28:42;4.47;;;1.17;;
28170;SDS011;15458;53.346;-1.688;2022-08-02T01:31:19;3.80;;;1.42;;
28170;SDS011;15458;53.346;-1.688;2022-08-02T01:33:58;5.47;;;1.20;;
28170;SDS011;15458;53.346;-1.688;2022-08-02T01:36:51;5.63;;;1.73;;
28170;SDS011;15458;53.346;-1.688;2022-08-02T01:39:22;6.60;;;1.00;;
28170;SDS011;15458;53.346;-1.688;2022-08-02T01:41:51;7.40;;;1.70;;
28170;SDS011;15458;53.346;-1.688;2022-08-02T01:44:19;6.25;;;1.42;;
28170;SDS011;15458;53.346;-1.688;2022-08-02T01:46:47;7.15;;;1.50;;
28170;SDS011;15458;53.346;-1.688;2022-08-02T01:49:16;9.57;;;2.08;;
28170;SDS011;15458;53.346;-1.688;2022-08-02T01:51:45;5.35;;;1.00;;
28170;SDS011;15458;53.346;-1.688;2022-08-02T01:54:33;6.25;;;1.30;;
28170;SDS011;15458;53.346;-1.688;2022-08-02T01:57:01;4.82;;;1.50;;
28170;SDS011;15458;53.346;-1.688;2022-08-02T01:59:30;4.93;;;1.10;;
28170;SDS011;15458;53.346;-1.688;2022-08-02T02:01:58;8.20;;;2.00;;
28170;SDS011;15458;53.346;-1.688;2022-08-02T02:04:25;5.93;;;1.20;;
28170;SDS011;15458;53.346;-1.688;2022-08-02T02:06:55;2.90;;;1.05;;
28170;SDS011;15458;53.346;-1.688;2022-08-02T02:09:21;4.78;;;1.88;;
28170;SDS011;15458;53.346;-1.688;2022-08-02T02:11:50;2.35;;;1.33;;
28170;SDS011;15458;53.346;-1.688;2022-08-02T02:14:16;4.70;;;1.25;;
28170;SDS011;15458;53.346;-1.688;2022-08-02T02:16:44;3.35;;;1.23;;
28170;SDS011;15458;53.346;-1.688;2022-08-02T02:19:12;6.40;;;1.40;;
28170;SDS011;15458;53.346;-1.688;2022-08-02T02:21:42;3.88;;;1.23;;
28170;SDS011;15458;53.346;-1.688;2022-08-02T02:24:08;5.78;;;1.20;;
28170;SDS011;15458;53.346;-1.688;2022-08-02T02:26:34;5.78;;;1.48;;
28170;SDS011;15458;53.346;-1.688;2022-08-02T02:29:02;7.13;;;1.48;;
28170;SDS011;15458;53.346;-1.688;2022-08-02T02:31:39;3.67;;;1.33;;
28170;SDS011;15458;53.346;-1.688;2022-08-02T02:34:42;4.40;;;1.38;;
28170;SDS011;15458;53.346;-1.688;2022-08-02T02:37:07;4.20;;;1.50;;
28170;SDS011;15458;53.346;-1.688;2022-08-02T02:39:41;4.72;;;1.45;;
28170;SDS011;15458;53.346;-1.688;2022-08-02T02:42:09;3.88;;;1.63;;
28170;SDS011;15458;53.346;-1.688;2022-08-02T02:44:40;5.55;;;1.65;;
28170;SDS011;15458;53.346;-1.688;2022-08-02T02:47:08;2.90;;;1.45;;
28170;SDS011;15458;53.346;-1.688;2022-08-02T02:49:35;6.15;;;2.05;;
28170;SDS011;15458;53.346;-1.688;2022-08-02T02:52:03;7.50;;;1.40;;
28170;SDS011;15458;53.346;-1.688;2022-08-02T02:54:31;5.82;;;1.63;;
28170;SDS011;15458;53.346;-1.688;2022-08-02T02:56:58;8.70;;;1.80;;
28170;SDS011;15458;53.346;-1.688;2022-08-02T02:59:25;3.13;;;1.70;;
28170;SDS011;15458;53.346;-1.688;2022-08-02T03:01:51;4.10;;;1.85;;
28170;SDS011;15458;53.346;-1.688;2022-08-02T03:04:18;5.78;;;1.73;;
28170;SDS011;15458;53.346;-1.688;2022-08-02T03:06:46;5.15;;;2.42;;
28170;SDS011;15458;53.346;-1.688;2022-08-02T03:09:14;5.03;;;1.58;;
28170;SDS011;15458;53.346;-1.688;2022-08-02T03:11:40;8.05;;;1.80;;
28170;SDS011;15458;53.346;-1.688;2022-08-02T03:14:07;4.95;;;1.73;;
28170;SDS011;15458;53.346;-1.688;2022-08-02T03:16:45;4.05;;;2.22;;
28170;SDS011;15458;53.346;-1.688;2022-08-02T03:19:13;3.78;;;1.77;;
28170;SDS011;15458;53.346;-1.688;2022-08-02T03:21:40;5.65;;;1.65;;
28170;SDS011;15458;53.346;-1.688;2022-08-02T03:24:06;6.22;;;2.20;;
28170;SDS011;15458;53.346;-1.688;2022-08-02T03:26:32;4.20;;;1.63;;
28170;SDS011;15458;53.346;-1.688;2022-08-02T03:28:58;9.30;;;1.80;;
28170;SDS011;15458;53.346;-1.688;2022-08-02T03:31:24;3.22;;;1.58;;
28170;SDS011;15458;53.346;-1.688;2022-08-02T03:33:50;3.65;;;2.00;;
28170;SDS011;15458;53.346;-1.688;2022-08-02T03:36:16;4.22;;;1.67;;
28170;SDS011;15458;53.346;-1.688;2022-08-02T03:38:45;4.93;;;1.65;;
28170;SDS011;15458;53.346;-1.688;2022-08-02T03:41:12;6.20;;;1.52;;
28170;SDS011;15458;53.346;-1.688;2022-08-02T03:43:41;5.50;;;1.73;;
28170;SDS011;15458;53.346;-1.688;2022-08-02T03:46:09;4.07;;;2.00;;
28170;SDS011;15458;53.346;-1.688;2022-08-02T03:48:36;3.67;;;1.30;;
28170;SDS011;15458;53.346;-1.688;2022-08-02T03:51:02;5.95;;;1.33;;
28170;SDS011;15458;53.346;-1.688;2022-08-02T03:53:29;6.68;;;1.48;;
28170;SDS011;15458;53.346;-1.688;2022-08-02T03:55:55;4.13;;;1.30;;
28170;SDS011;15458;53.346;-1.688;2022-08-02T03:58:23;5.75;;;1.20;;
28170;SDS011;15458;53.346;-1.688;2022-08-02T04:00:50;5.25;;;1.38;;
28170;SDS011;15458;53.346;-1.688;2022-08-02T04:03:17;5.93;;;1.50;;
28170;SDS011;15458;53.346;-1.688;2022-08-02T04:05:43;1.25;;;1.00;;
28170;SDS011;15458;53.346;-1.688;2022-08-02T04:08:09;5.63;;;1.83;;
28170;SDS011;15458;53.346;-1.688;2022-08-02T04:10:35;4.38;;;1.23;;
28170;SDS011;15458;53.346;-1.688;2022-08-02T04:13:21;0.88;;;0.82;;
28170;SDS011;15458;53.346;-1.688;2022-08-02T04:15:48;4.07;;;1.15;;
28170;SDS011;15458;53.346;-1.688;2022-08-02T04:18:16;4.70;;;1.75;;
28170;SDS011;15458;53.346;-1.688;2022-08-02T04:20:46;3.27;;;1.37;;
28170;SDS011;15458;53.346;-1.688;2022-08-02T04:23:13;2.60;;;0.77;;
28170;SDS011;15458;53.346;-1.688;2022-08-02T04:25:41;1.42;;;0.70;;
28170;SDS011;15458;53.346;-1.688;2022-08-02T04:28:08;1.38;;;0.70;;
28170;SDS011;15458;53.346;-1.688;2022-08-02T04:30:35;3.38;;;0.95;;
28170;SDS011;15458;53.346;-1.688;2022-08-02T04:33:02;2.00;;;0.65;;
28170;SDS011;15458;53.346;-1.688;2022-08-02T04:35:28;1.77;;;0.73;;
28170;SDS011;15458;53.346;-1.688;2022-08-02T04:37:54;2.05;;;0.50;;
28170;SDS011;15458;53.346;-1.688;2022-08-02T04:40:20;1.90;;;0.55;;
28170;SDS011;15458;53.346;-1.688;2022-08-02T04:42:46;2.58;;;0.80;;
28170;SDS011;15458;53.346;-1.688;2022-08-02T04:45:12;1.52;;;0.60;;
28170;SDS011;15458;53.346;-1.688;2022-08-02T04:47:39;3.85;;;0.60;;
28170;SDS011;15458;53.346;-1.688;2022-08-02T04:50:04;0.63;;;0.40;;
28170;SDS011;15458;53.346;-1.688;2022-08-02T04:52:31;0.65;;;0.50;;
28170;SDS011;15458;53.346;-1.688;2022-08-02T04:54:56;1.35;;;0.60;;
28170;SDS011;15458;53.346;-1.688;2022-08-02T04:57:22;4.28;;;0.65;;
28170;SDS011;15458;53.346;-1.688;2022-08-02T05:00:07;0.85;;;0.60;;
28170;SDS011;15458;53.346;-1.688;2022-08-02T05:02:34;1.45;;;0.70;;
28170;SDS011;15458;53.346;-1.688;2022-08-02T05:05:00;1.50;;;0.88;;
28170;SDS011;15458;53.346;-1.688;2022-08-02T05:07:26;0.93;;;0.50;;
28170;SDS011;15458;53.346;-1.688;2022-08-02T05:09:52;2.50;;;0.80;;
28170;SDS011;15458;53.346;-1.688;2022-08-02T05:12:17;2.25;;;0.60;;
28170;SDS011;15458;53.346;-1.688;2022-08-02T05:14:46;1.65;;;0.63;;
28170;SDS011;15458;53.346;-1.688;2022-08-02T05:17:12;1.63;;;0.90;;
28170;SDS011;15458;53.346;-1.688;2022-08-02T05:19:38;2.42;;;0.80;;
28170;SDS011;15458;53.346;-1.688;2022-08-02T05:22:04;3.05;;;0.77;;
28170;SDS011;15458;53.346;-1.688;2022-08-02T05:24:30;1.65;;;0.82;;
28170;SDS011;15458;53.346;-1.688;2022-08-02T05:26:55;3.30;;;0.70;;
28170;SDS011;15458;53.346;-1.688;2022-08-02T05:29:21;1.55;;;0.70;;
28170;SDS011;15458;53.346;-1.688;2022-08-02T05:31:47;1.60;;;0.68;;
28170;SDS011;15458;53.346;-1.688;2022-08-02T05:34:13;2.90;;;0.68;;
28170;SDS011;15458;53.346;-1.688;2022-08-02T05:36:39;1.38;;;0.60;;
28170;SDS011;15458;53.346;-1.688;2022-08-02T05:39:06;1.45;;;0.50;;
28170;SDS011;15458;53.346;-1.688;2022-08-02T05:41:32;1.30;;;0.70;;
28170;SDS011;15458;53.346;-1.688;2022-08-02T05:43:58;1.60;;;0.45;;
28170;SDS011;15458;53.346;-1.688;2022-08-02T05:46:23;2.17;;;0.55;;
28170;SDS011;15458;53.346;-1.688;2022-08-02T05:48:49;0.90;;;0.57;;
28170;SDS011;15458;53.346;-1.688;2022-08-02T05:51:28;2.50;;;0.50;;
28170;SDS011;15458;53.346;-1.688;2022-08-02T05:56:53;0.70;;;0.22;;
28170;SDS011;15458;53.346;-1.688;2022-08-02T05:59:49;2.80;;;0.40;;
28170;SDS011;15458;53.346;-1.688;2022-08-02T06:02:22;0.30;;;0.30;;
28170;SDS011;15458;53.346;-1.688;2022-08-02T06:05:20;1.00;;;0.40;;
28170;SDS011;15458;53.346;-1.688;2022-08-02T06:07:46;2.15;;;0.50;;
28170;SDS011;15458;53.346;-1.688;2022-08-02T06:10:14;2.00;;;0.40;;
28170;SDS011;15458;53.346;-1.688;2022-08-02T06:15:40;1.27;;;0.68;;
28170;SDS011;15458;53.346;-1.688;2022-08-02T06:18:06;1.15;;;0.32;;
28170;SDS011;15458;53.346;-1.688;2022-08-02T06:20:33;0.52;;;0.47;;
28170;SDS011;15458;53.346;-1.688;2022-08-02T06:23:01;1.50;;;0.60;;
28170;SDS011;15458;53.346;-1.688;2022-08-02T06:28:03;1.80;;;0.52;;
28170;SDS011;15458;53.346;-1.688;2022-08-02T06:30:30;1.55;;;0.50;;
28170;SDS011;15458;53.346;-1.688;2022-08-02T06:32:57;4.97;;;1.20;;
28170;SDS011;15458;53.346;-1.688;2022-08-02T06:35:42;1.35;;;0.70;;
28170;SDS011;15458;53.346;-1.688;2022-08-02T06:38:40;4.70;;;0.95;;
28170;SDS011;15458;53.346;-1.688;2022-08-02T06:41:18;2.42;;;0.80;;
28170;SDS011;15458;53.346;-1.688;2022-08-02T06:43:54;1.67;;;0.77;;
28170;SDS011;15458;53.346;-1.688;2022-08-02T06:46:24;3.22;;;0.70;;
28170;SDS011;15458;53.346;-1.688;2022-08-02T06:48:50;1.77;;;0.73;;
28170;SDS011;15458;53.346;-1.688;2022-08-02T06:51:16;3.45;;;1.45;;
28170;SDS011;15458;53.346;-1.688;2022-08-02T06:53:42;2.00;;;1.10;;
28170;SDS011;15458;53.346;-1.688;2022-08-02T06:56:09;1.58;;;1.15;;
28170;SDS011;15458;53.346;-1.688;2022-08-02T06:58:41;2.45;;;1.30;;
28170;SDS011;15458;53.346;-1.688;2022-08-02T07:01:08;3.47;;;1.10;;
28170;SDS011;15458;53.346;-1.688;2022-08-02T07:06:20;5.78;;;1.48;;
28170;SDS011;15458;53.346;-1.688;2022-08-02T07:12:51;4.95;;;1.70;;
28170;SDS011;15458;53.346;-1.688;2022-08-02T07:15:16;3.13;;;1.58;;
28170;SDS011;15458;53.346;-1.688;2022-08-02T07:17:42;5.63;;;1.67;;
28170;SDS011;15458;53.346;-1.688;2022-08-02T07:20:08;4.22;;;1.60;;
28170;SDS011;15458;53.346;-1.688;2022-08-02T07:22:35;13.05;;;2.88;;
28170;SDS011;15458;53.346;-1.688;2022-08-02T07:25:01;7.00;;;1.88;;
28170;SDS011;15458;53.346;-1.688;2022-08-02T07:27:27;4.68;;;2.03;;
28170;SDS011;15458;53.346;-1.688;2022-08-02T07:29:54;8.55;;;1.33;;
28170;SDS011;15458;53.346;-1.688;2022-08-02T07:32:22;6.72;;;1.63;;
28170;SDS011;15458;53.346;-1.688;2022-08-02T07:34:50;3.45;;;1.00;;
28170;SDS011;15458;53.346;-1.688;2022-08-02T07:37:16;4.40;;;1.08;;
28170;SDS011;15458;53.346;-1.688;2022-08-02T07:39:45;3.95;;;0.98;;
28170;SDS011;15458;53.346;-1.688;2022-08-02T07:42:14;2.45;;;1.20;;
28170;SDS011;15458;53.346;-1.688;2022-08-02T07:44:39;2.65;;;1.10;;
28170;SDS011;15458;53.346;-1.688;2022-08-02T07:47:05;2.58;;;1.17;;
28170;SDS011;15458;53.346;-1.688;2022-08-02T07:49:31;1.27;;;0.70;;
28170;SDS011;15458;53.346;-1.688;2022-08-02T07:51:57;1.08;;;0.70;;
28170;SDS011;15458;53.346;-1.688;2022-08-02T07:54:23;2.33;;;0.68;;
28170;SDS011;15458;53.346;-1.688;2022-08-02T07:56:49;1.77;;;0.80;;
28170;SDS011;15458;53.346;-1.688;2022-08-02T07:59:20;2.08;;;0.80;;
28170;SDS011;15458;53.346;-1.688;2022-08-02T08:01:46;1.27;;;0.65;;
28170;SDS011;15458;53.346;-1.688;2022-08-02T08:04:14;1.38;;;0.80;;
28170;SDS011;15458;53.346;-1.688;2022-08-02T08:06:41;1.38;;;0.85;;
28170;SDS011;15458;53.346;-1.688;2022-08-02T08:09:07;2.05;;;1.05;;
28170;SDS011;15458;53.346;-1.688;2022-08-02T08:11:34;1.25;;;0.70;;
28170;SDS011;15458;53.346;-1.688;2022-08-02T08:14:00;0.55;;;0.28;;
28170;SDS011;15458;53.346;-1.688;2022-08-02T08:16:25;0.30;;;0.28;;
28170;SDS011;15458;53.346;-1.688;2022-08-02T08:18:54;0.98;;;0.40;;
28170;SDS011;15458;53.346;-1.688;2022-08-02T08:21:23;0.50;;;0.30;;
28170;SDS011;15458;53.346;-1.688;2022-08-02T08:23:49;2.88;;;0.30;;
28170;SDS011;15458;53.346;-1.688;2022-08-02T08:26:15;0.80;;;0.40;;
28170;SDS011;15458;53.346;-1.688;2022-08-02T08:28:41;0.85;;;0.32;;
28170;SDS011;15458;53.346;-1.688;2022-08-02T08:31:07;0.10;;;0.10;;
28170;SDS011;15458;53.346;-1.688;2022-08-02T08:33:32;0.32;;;0.10;;
28170;SDS011;15458;53.346;-1.688;2022-08-02T08:35:58;2.28;;;0.20;;
28170;SDS011;15458;53.346;-1.688;2022-08-02T08:38:24;0.30;;;0.30;;
28170;SDS011;15458;53.346;-1.688;2022-08-02T08:40:50;0.63;;;0.30;;
28170;SDS011;15458;53.346;-1.688;2022-08-02T08:43:16;2.10;;;0.30;;
28170;SDS011;15458;53.346;-1.688;2022-08-02T08:45:43;1.27;;;0.40;;
28170;SDS011;15458;53.346;-1.688;2022-08-02T08:48:11;1.67;;;0.70;;
28170;SDS011;15458;53.346;-1.688;2022-08-02T08:51:14;1.13;;;0.55;;
28170;SDS011;15458;53.346;-1.688;2022-08-02T08:53:43;0.88;;;0.60;;
28170;SDS011;15458;53.346;-1.688;2022-08-02T08:56:12;2.05;;;0.70;;
28170;SDS011;15458;53.346;-1.688;2022-08-02T08:58:40;1.95;;;0.85;;
28170;SDS011;15458;53.346;-1.688;2022-08-02T09:01:07;3.60;;;1.45;;
28170;SDS011;15458;53.346;-1.688;2022-08-02T09:03:33;2.03;;;1.17;;
28170;SDS011;15458;53.346;-1.688;2022-08-02T09:06:02;4.55;;;0.90;;
28170;SDS011;15458;53.346;-1.688;2022-08-02T09:08:28;1.17;;;1.00;;
28170;SDS011;15458;53.346;-1.688;2022-08-02T09:10:54;5.47;;;1.10;;
28170;SDS011;15458;53.346;-1.688;2022-08-02T09:13:24;4.22;;;1.55;;
28170;SDS011;15458;53.346;-1.688;2022-08-02T09:15:59;3.85;;;1.33;;
28170;SDS011;15458;53.346;-1.688;2022-08-02T09:18:34;7.47;;;2.28;;
28170;SDS011;15458;53.346;-1.688;2022-08-02T09:21:03;3.92;;;1.58;;
28170;SDS011;15458;53.346;-1.688;2022-08-02T09:23:34;4.05;;;2.00;;
28170;SDS011;15458;53.346;-1.688;2022-08-02T09:26:03;5.47;;;1.58;;
28170;SDS011;15458;53.346;-1.688;2022-08-02T09:28:31;2.65;;;1.08;;
28170;SDS011;15458;53.346;-1.688;2022-08-02T09:31:03;2.72;;;1.60;;
28170;SDS011;15458;53.346;-1.688;2022-08-02T09:33:35;5.55;;;2.00;;
28170;SDS011;15458;53.346;-1.688;2022-08-02T09:38:36;5.15;;;1.80;;
28170;SDS011;15458;53.346;-1.688;2022-08-02T09:41:04;5.35;;;1.50;;
28170;SDS011;15458;53.346;-1.688;2022-08-02T09:43:38;3.08;;;1.05;;
28170;SDS011;15458;53.346;-1.688;2022-08-02T09:46:13;5.55;;;2.17;;
28170;SDS011;15458;53.346;-1.688;2022-08-02T09:51:25;5.20;;;1.70;;
28170;SDS011;15458;53.346;-1.688;2022-08-02T09:53:59;5.22;;;2.42;;
28170;SDS011;15458;53.346;-1.688;2022-08-02T09:56:27;7.63;;;1.95;;
28170;SDS011;15458;53.346;-1.688;2022-08-02T09:59:06;4.70;;;1.40;;
28170;SDS011;15458;53.346;-1.688;2022-08-02T10:01:33;2.45;;;1.10;;
28170;SDS011;15458;53.346;-1.688;2022-08-02T10:04:04;5.97;;;1.65;;
28170;SDS011;15458;53.346;-1.688;2022-08-02T10:06:31;4.45;;;1.75;;
28170;SDS011;15458;53.346;-1.688;2022-08-02T10:08:58;4.43;;;1.30;;
28170;SDS011;15458;53.346;-1.688;2022-08-02T10:11:26;2.33;;;1.33;;
28170;SDS011;15458;53.346;-1.688;2022-08-02T10:13:53;7.90;;;1.10;;
28170;SDS011;15458;53.346;-1.688;2022-08-02T10:16:21;2.58;;;1.13;;
28170;SDS011;15458;53.346;-1.688;2022-08-02T10:18:49;0.60;;;0.60;;
28170;SDS011;15458;53.346;-1.688;2022-08-02T10:21:19;3.28;;;1.00;;
28170;SDS011;15458;53.346;-1.688;2022-08-02T10:24:08;1.48;;;0.88;;
28170;SDS011;15458;53.346;-1.688;2022-08-02T10:26:37;2.45;;;1.45;;
28170;SDS011;15458;53.346;-1.688;2022-08-02T10:29:04;1.63;;;0.98;;
28170;SDS011;15458;53.346;-1.688;2022-08-02T10:31:33;2.38;;;0.77;;
28170;SDS011;15458;53.346;-1.688;2022-08-02T10:34:07;2.20;;;1.27;;
28170;SDS011;15458;53.346;-1.688;2022-08-02T10:36:36;1.77;;;0.90;;
28170;SDS011;15458;53.346;-1.688;2022-08-02T10:39:04;3.75;;;0.88;;
28170;SDS011;15458;53.346;-1.688;2022-08-02T10:44:05;1.80;;;1.10;;
28170;SDS011;15458;53.346;-1.688;2022-08-02T10:46:34;3.15;;;0.70;;
28170;SDS011;15458;53.346;-1.688;2022-08-02T10:49:11;0.55;;;0.40;;
28170;SDS011;15458;53.346;-1.688;2022-08-02T10:51:54;2.17;;;0.75;;
28170;SDS011;15458;53.346;-1.688;2022-08-02T10:54:24;2.15;;;0.60;;
28170;SDS011;15458;53.346;-1.688;2022-08-02T10:56:57;1.00;;;0.75;;
28170;SDS011;15458;53.346;-1.688;2022-08-02T10:59:25;5.35;;;0.50;;
28170;SDS011;15458;53.346;-1.688;2022-08-02T11:01:53;1.40;;;0.63;;
28170;SDS011;15458;53.346;-1.688;2022-08-02T11:05:11;1.50;;;0.60;;
28170;SDS011;15458;53.346;-1.688;2022-08-02T11:07:18;0.30;;;0.30;;
28170;SDS011;15458;53.346;-1.688;2022-08-02T11:09:55;1.00;;;0.35;;
28170;SDS011;15458;53.346;-1.688;2022-08-02T11:12:21;1.75;;;0.22;;
28170;SDS011;15458;53.346;-1.688;2022-08-02T11:15:03;0.35;;;0.30;;
28170;SDS011;15458;53.346;-1.688;2022-08-02T11:20:18;0.13;;;0.13;;
28170;SDS011;15458;53.346;-1.688;2022-08-02T11:22:46;0.40;;;0.13;;
28170;SDS011;15458;53.346;-1.688;2022-08-02T11:27:51;1.33;;;0.38;;
28170;SDS011;15458;53.346;-1.688;2022-08-02T11:30:24;2.55;;;0.30;;
28170;SDS011;15458;53.346;-1.688;2022-08-02T11:32:53;2.05;;;0.28;;
28170;SDS011;15458;53.346;-1.688;2022-08-02T11:35:20;0.50;;;0.20;;
28170;SDS011;15458;53.346;-1.688;2022-08-02T11:37:46;1.75;;;0.20;;
28170;SDS011;15458;53.346;-1.688;2022-08-02T11:40:13;3.35;;;0.38;;
28170;SDS011;15458;53.346;-1.688;2022-08-02T11:42:42;0.60;;;0.20;;
28170;SDS011;15458;53.346;-1.688;2022-08-02T11:45:12;0.70;;;0.25;;
28170;SDS011;15458;53.346;-1.688;2022-08-02T11:47:45;0.57;;;0.13;;
28170;SDS011;15458;53.346;-1.688;2022-08-02T11:50:12;0.10;;;0.10;;
28170;SDS011;15458;53.346;-1.688;2022-08-02T11:52:38;0.30;;;0.30;;
28170;SDS011;15458;53.346;-1.688;2022-08-02T11:55:08;0.52;;;0.20;;
28170;SDS011;15458;53.346;-1.688;2022-08-02T11:57:35;1.35;;;0.52;;
28170;SDS011;15458;53.346;-1.688;2022-08-02T12:00:02;1.25;;;0.20;;
28170;SDS011;15458;53.346;-1.688;2022-08-02T12:02:37;0.35;;;0.20;;
28170;SDS011;15458;53.346;-1.688;2022-08-02T12:05:13;1.15;;;0.40;;
28170;SDS011;15458;53.346;-1.688;2022-08-02T12:07:41;0.50;;;0.50;;
28170;SDS011;15458;53.346;-1.688;2022-08-02T12:10:09;0.30;;;0.25;;
28170;SDS011;15458;53.346;-1.688;2022-08-02T12:12:50;0.50;;;0.30;;
28170;SDS011;15458;53.346;-1.688;2022-08-02T12:17:57;0.22;;;0.22;;
28170;SDS011;15458;53.346;-1.688;2022-08-02T12:20:42;3.83;;;0.32;;
28170;SDS011;15458;53.346;-1.688;2022-08-02T12:23:08;1.02;;;0.20;;
28170;SDS011;15458;53.346;-1.688;2022-08-02T12:25:34;3.10;;;0.52;;
28170;SDS011;15458;53.346;-1.688;2022-08-02T12:30:56;0.20;;;0.20;;
28170;SDS011;15458;53.346;-1.688;2022-08-02T12:33:23;0.20;;;0.20;;
28170;SDS011;15458;53.346;-1.688;2022-08-02T12:35:52;1.25;;;0.35;;
28170;SDS011;15458;53.346;-1.688;2022-08-02T12:38:18;0.65;;;0.20;;
28170;SDS011;15458;53.346;-1.688;2022-08-02T12:40:44;2.55;;;0.35;;
28170;SDS011;15458;53.346;-1.688;2022-08-02T12:45:48;0.20;;;0.20;;
28170;SDS011;15458;53.346;-1.688;2022-08-02T12:48:35;2.67;;;0.35;;
28170;SDS011;15458;53.346;-1.688;2022-08-02T12:53:47;0.73;;;0.20;;
28170;SDS011;15458;53.346;-1.688;2022-08-02T12:56:25;0.75;;;0.30;;
28170;SDS011;15458;53.346;-1.688;2022-08-02T12:58:55;0.20;;;0.20;;
28170;SDS011;15458;53.346;-1.688;2022-08-02T13:01:22;5.65;;;0.38;;
28170;SDS011;15458;53.346;-1.688;2022-08-02T13:03:50;1.83;;;0.20;;
28170;SDS011;15458;53.346;-1.688;2022-08-02T13:06:20;1.08;;;0.20;;
28170;SDS011;15458;53.346;-1.688;2022-08-02T13:08:47;1.35;;;0.95;;
28170;SDS011;15458;53.346;-1.688;2022-08-02T13:11:13;3.65;;;0.30;;
28170;SDS011;15458;53.346;-1.688;2022-08-02T13:13:45;0.90;;;0.60;;
28170;SDS011;15458;53.346;-1.688;2022-08-02T13:16:11;1.40;;;0.30;;
28170;SDS011;15458;53.346;-1.688;2022-08-02T13:18:37;2.58;;;0.38;;
28170;SDS011;15458;53.346;-1.688;2022-08-02T13:21:04;0.38;;;0.35;;
28170;SDS011;15458;53.346;-1.688;2022-08-02T13:23:33;0.57;;;0.30;;
28170;SDS011;15458;53.346;-1.688;2022-08-02T13:26:00;0.82;;;0.30;;
28170;SDS011;15458;53.346;-1.688;2022-08-02T13:28:27;2.40;;;0.30;;
28170;SDS011;15458;53.346;-1.688;2022-08-02T13:30:52;0.70;;;0.20;;
28170;SDS011;15458;53.346;-1.688;2022-08-02T13:33:19;0.50;;;0.30;;
28170;SDS011;15458;53.346;-1.688;2022-08-02T13:35:45;0.65;;;0.20;;
28170;SDS011;15458;53.346;-1.688;2022-08-02T13:38:12;1.42;;;0.20;;
28170;SDS011;15458;53.346;-1.688;2022-08-02T13:40:38;0.90;;;0.20;;
28170;SDS011;15458;53.346;-1.688;2022-08-02T13:43:22;0.80;;;0.25;;
28170;SDS011;15458;53.346;-1.688;2022-08-02T13:45:48;3.13;;;0.40;;
28170;SDS011;15458;53.346;-1.688;2022-08-02T13:48:17;1.75;;;0.35;;
28170;SDS011;15458;53.346;-1.688;2022-08-02T13:50:44;0.88;;;0.28;;
28170;SDS011;15458;53.346;-1.688;2022-08-02T13:53:09;4.03;;;0.40;;
28170;SDS011;15458;53.346;-1.688;2022-08-02T13:55:35;0.43;;;0.20;;
28170;SDS011;15458;53.346;-1.688;2022-08-02T13:58:01;0.43;;;0.28;;
28170;SDS011;15458;53.346;-1.688;2022-08-02T14:00:28;0.30;;;0.20;;
28170;SDS011;15458;53.346;-1.688;2022-08-02T14:02:54;2.85;;;0.40;;
28170;SDS011;15458;53.346;-1.688;2022-08-02T14:05:20;2.15;;;0.40;;
28170;SDS011;15458;53.346;-1.688;2022-08-02T14:07:45;5.72;;;0.32;;
28170;SDS011;15458;53.346;-1.688;2022-08-02T14:10:11;1.48;;;0.40;;
28170;SDS011;15458;53.346;-1.688;2022-08-02T14:12:37;0.93;;;0.60;;
28170;SDS011;15458;53.346;-1.688;2022-08-02T14:15:03;3.00;;;0.43;;
28170;SDS011;15458;53.346;-1.688;2022-08-02T14:17:29;0.30;;;0.30;;
28170;SDS011;15458;53.346;-1.688;2022-08-02T14:19:55;1.15;;;0.32;;
28170;SDS011;15458;53.346;-1.688;2022-08-02T14:22:23;0.43;;;0.20;;
28170;SDS011;15458;53.346;-1.688;2022-08-02T14:24:49;0.55;;;0.40;;
28170;SDS011;15458;53.346;-1.688;2022-08-02T14:27:18;0.57;;;0.30;;
28170;SDS011;15458;53.346;-1.688;2022-08-02T14:29:43;1.80;;;0.60;;
28170;SDS011;15458;53.346;-1.688;2022-08-02T14:32:10;1.77;;;0.30;;
28170;SDS011;15458;53.346;-1.688;2022-08-02T14:34:36;1.65;;;0.45;;
28170;SDS011;15458;53.346;-1.688;2022-08-02T14:37:03;4.18;;;0.47;;
28170;SDS011;15458;53.346;-1.688;2022-08-02T14:39:29;0.20;;;0.20;;
28170;SDS011;15458;53.346;-1.688;2022-08-02T14:41:55;0.45;;;0.32;;
28170;SDS011;15458;53.346;-1.688;2022-08-02T14:44:21;0.77;;;0.30;;
28170;SDS011;15458;53.346;-1.688;2022-08-02T14:46:46;0.45;;;0.35;;
28170;SDS011;15458;53.346;-1.688;2022-08-02T14:49:14;2.53;;;0.60;;
28170;SDS011;15458;53.346;-1.688;2022-08-02T14:51:43;0.25;;;0.20;;
28170;SDS011;15458;53.346;-1.688;2022-08-02T14:54:09;2.10;;;0.45;;
28170;SDS011;15458;53.346;-1.688;2022-08-02T14:56:45;2.83;;;0.32;;
28170;SDS011;15458;53.346;-1.688;2022-08-02T14:59:10;2.80;;;0.50;;
28170;SDS011;15458;53.346;-1.688;2022-08-02T15:01:36;1.65;;;0.82;;
28170;SDS011;15458;53.346;-1.688;2022-08-02T15:04:03;1.10;;;0.35;;
28170;SDS011;15458;53.346;-1.688;2022-08-02T15:06:29;0.52;;;0.30;;
28170;SDS011;15458;53.346;-1.688;2022-08-02T15:08:57;1.75;;;0.30;;
28170;SDS011;15458;53.346;-1.688;2022-08-02T15:11:26;1.65;;;0.40;;
28170;SDS011;15458;53.346;-1.688;2022-08-02T15:13:53;1.95;;;0.60;;
28170;SDS011;15458;53.346;-1.688;2022-08-02T15:16:25;0.30;;;0.30;;
28170;SDS011;15458;53.346;-1.688;2022-08-02T15:18:51;0.90;;;0.47;;
28170;SDS011;15458;53.346;-1.688;2022-08-02T15:21:17;1.27;;;0.60;;
28170;SDS011;15458;53.346;-1.688;2022-08-02T15:23:43;0.90;;;0.40;;
28170;SDS011;15458;53.346;-1.688;2022-08-02T15:26:12;1.67;;;0.30;;
28170;SDS011;15458;53.346;-1.688;2022-08-02T15:28:37;2.95;;;0.40;;
28170;SDS011;15458;53.346;-1.688;2022-08-02T15:31:03;0.50;;;0.30;;